Carson, Alabama
Current Conditions -  °F | °C
As of 3:53 AM on Monday 22 Dec 2014 (Local Time) from KGZH Reporting Station
Haze Haze  
Wind Chill: 54°   Ceiling: 200
Heat Index: 54°   Visibility: 1.2mi
Dew Point: 53°   Wind: 5mph
Humidity: 97%   Direction: 100°E
Pressure: 29.95"   Gusts: NA
Location:  31.4775°N, 87.9599°W
Report Text: KGZH 220953Z AUTO 10004KT 1 1/4SM BR OVC002 12/12 A2995 RMK AO2 SLP140 T01220117
Loading
Personal Weather Stations






























Interactive Weather Map New forecast layout! Learn more

10-Day Weather Forecast

Advertisements
Track Severe Weather on mobile